YSNW/NOA METAR and TAF weather

Enter ICAO airport designator
Station Type Date Time Source
YSNW METAR 2021/03/02 16:00 UTC NOAA

YSNW 021600Z AUTO 17003KT 9999 // SCT033 OVC042 14/14 Q1015


Station Type Date Time Source
YSNW Decoded METAR 2021/03/02 16:00 UTC NOAA

Nowra Ran Air Station, Australia (YSNW) 34-57S 150-32E 110M
Mar 02, 2021 - 11:00 AM EST / 2021.03.02 1600 UTC
Wind: from the S (170 degrees) at 3 MPH (3 KT):0
Visibility: greater than 7 mile(s):0
Sky conditions: overcast
Temperature: 57 F (14 C)
Dew Point: 57 F (14 C)
Relative Humidity: 100%
Pressure (altimeter): 29.97 in. Hg (1015 hPa)
ob: YSNW 021600Z AUTO 17003KT 9999 // SCT033 OVC042 14/14 Q1015
cycle: 16

Station Type Date Time Source
YSNW TAF UTC NOAA

Error!

Example: see airport list